createdAt,value
2022-09-09T00:04:55.455Z,13.4
2022-09-09T00:09:56.253Z,12.2
2022-09-09T00:14:57.121Z,12.0
2022-09-09T00:19:57.747Z,12.7
2022-09-09T00:24:58.686Z,10.9
2022-09-09T00:29:59.600Z,12.9
2022-09-09T00:35:00.116Z,9.8
2022-09-09T00:40:01.058Z,12.0
2022-09-09T00:45:02.312Z,10.0
2022-09-09T00:50:02.624Z,9.9
2022-09-09T00:55:03.501Z,9.7
2022-09-09T01:00:04.278Z,9.7
2022-09-09T01:05:05.013Z,10.2
2022-09-09T01:10:05.918Z,14.4
2022-09-09T01:15:06.742Z,10.6
2022-09-09T01:20:07.560Z,13.2
2022-09-09T01:25:08.403Z,13.2
2022-09-09T01:30:11.806Z,12.9
2022-09-09T01:35:09.911Z,11.5
2022-09-09T01:40:12.166Z,13.7
2022-09-09T01:45:11.602Z,11.4
2022-09-09T01:50:12.476Z,14.3
2022-09-09T01:55:13.439Z,11.9
2022-09-09T02:00:14.139Z,10.4
2022-09-09T02:05:15.057Z,9.8
2022-09-09T02:10:16.061Z,10.3
2022-09-09T02:15:16.716Z,10.2
2022-09-09T02:20:17.513Z,10.5
2022-09-09T02:25:18.584Z,9.5
2022-09-09T02:30:19.193Z,9.7
2022-09-09T02:35:20.013Z,9.3
2022-09-09T02:40:21.064Z,12.5
2022-09-09T02:45:22.082Z,8.9
2022-09-09T02:50:22.547Z,9.7
2022-09-09T02:55:23.503Z,9.0
2022-09-09T03:00:24.098Z,11.2
2022-09-09T03:05:25.124Z,5.9
2022-09-09T03:10:26.173Z,10.4
2022-09-09T03:15:27.171Z,12.3
2022-09-09T03:20:27.518Z,13.6
2022-09-09T03:25:28.392Z,9.5
2022-09-09T03:30:29.055Z,11.3
2022-09-09T03:35:29.897Z,11.0
2022-09-09T03:40:30.893Z,10.2
2022-09-09T03:45:31.849Z,13.9
2022-09-09T03:50:32.355Z,9.3
2022-09-09T03:55:33.440Z,10.8
2022-09-09T04:00:34.074Z,8.6
2022-09-09T04:05:34.864Z,9.8
2022-09-09T04:10:45.025Z,5.8
2022-09-09T04:15:36.602Z,8.4
2022-09-09T04:20:37.183Z,6.1
2022-09-09T04:25:37.960Z,7.6
2022-09-09T04:30:38.945Z,6.3
2022-09-09T04:35:39.813Z,7.8
2022-09-09T04:40:40.366Z,2.6
2022-09-09T04:45:41.731Z,3.7
2022-09-09T04:50:41.982Z,3.6
2022-09-09T04:55:42.780Z,1.9
2022-09-09T05:00:44.055Z,1.6
2022-09-09T05:05:44.552Z,1.3
2022-09-09T05:10:45.158Z,1.5
2022-09-09T05:15:46.388Z,1.5
2022-09-09T05:20:46.670Z,1.2
2022-09-09T05:25:47.661Z,1.3
2022-09-09T05:30:48.458Z,0.7
2022-09-09T05:35:49.123Z,1.0
2022-09-09T05:40:49.935Z,1.1
2022-09-09T05:45:51.706Z,1.0
2022-09-09T05:50:51.458Z,0.9
2022-09-09T05:55:52.580Z,0.8
2022-09-09T06:00:53.744Z,0.8
2022-09-09T06:05:53.915Z,1.4
2022-09-09T06:10:54.793Z,0.8
2022-09-09T06:15:55.912Z,2.1
2022-09-09T06:20:56.401Z,0.7
2022-09-09T06:25:57.143Z,0.8
2022-09-09T06:30:58.146Z,1.5
2022-09-09T06:35:58.984Z,0.7
2022-09-09T06:40:59.563Z,0.8
2022-09-09T06:46:00.725Z,0.7
2022-09-09T06:51:01.182Z,0.7
2022-09-09T06:56:01.901Z,0.6
2022-09-09T07:01:03.052Z,1.1
2022-09-09T07:06:03.684Z,1.9
2022-09-09T07:11:07.057Z,3.4
2022-09-09T07:16:05.641Z,4.1
2022-09-09T07:21:06.004Z,5.5
2022-09-09T07:26:06.834Z,7.6
2022-09-09T07:31:07.731Z,3.3
2022-09-09T07:36:08.401Z,4.7
2022-09-09T07:41:09.067Z,5.0
2022-09-09T07:46:10.373Z,5.4
2022-09-09T07:51:10.770Z,5.9
2022-09-09T07:56:15.570Z,6.8
2022-09-09T08:01:12.390Z,9.5
2022-09-09T08:06:13.481Z,5.1
2022-09-09T08:11:13.958Z,8.9
2022-09-09T08:16:15.188Z,7.9
2022-09-09T08:21:15.574Z,6.6
2022-09-09T08:26:16.336Z,8.3
2022-09-09T08:31:17.517Z,11.1
2022-09-09T08:36:18.040Z,13.7
2022-09-09T08:41:18.839Z,8.2
2022-09-09T08:46:20.266Z,11.3
2022-09-09T08:51:20.799Z,11.1
2022-09-09T08:56:21.239Z,10.1
2022-09-09T09:01:22.235Z,12.2
2022-09-09T09:06:23.007Z,9.8
2022-09-09T09:11:23.962Z,12.4
2022-09-09T09:16:24.639Z,12.4
2022-09-09T09:21:25.513Z,10.3
2022-09-09T09:26:26.221Z,9.2
2022-09-09T09:31:27.159Z,10.5
2022-09-09T09:36:28.352Z,7.3
2022-09-09T09:41:28.814Z,13.2
2022-09-09T09:46:30.280Z,10.9
2022-09-09T09:51:30.651Z,9.7
2022-09-09T09:56:31.231Z,12.1
2022-09-09T10:01:32.304Z,7.2
2022-09-09T10:06:33.123Z,7.8
2022-09-09T10:11:33.772Z,8.7
2022-09-09T10:16:34.742Z,11.2
2022-09-09T10:21:35.459Z,11.0
2022-09-09T10:26:36.414Z,9.2
2022-09-09T10:31:37.202Z,9.0
2022-09-09T10:36:38.036Z,8.5
2022-09-09T10:41:38.825Z,6.8
2022-09-09T10:46:40.473Z,7.8
2022-09-09T10:51:40.542Z,8.5
2022-09-09T10:56:41.405Z,5.5
2022-09-09T11:01:42.750Z,9.8
2022-09-09T11:06:43.282Z,8.3
2022-09-09T11:11:43.820Z,7.0
2022-09-09T11:16:44.792Z,6.1
2022-09-09T11:21:45.466Z,8.4
2022-09-09T11:26:46.365Z,6.3
2022-09-09T11:31:47.128Z,6.1
2022-09-09T11:36:47.935Z,8.4
2022-09-09T11:41:48.957Z,7.3
2022-09-09T11:46:49.969Z,5.8
2022-09-09T11:51:50.470Z,7.5
2022-09-09T11:56:51.265Z,6.7
2022-09-09T12:01:52.229Z,6.8
2022-09-09T12:06:52.945Z,5.8
2022-09-09T12:11:53.860Z,5.1
2022-09-09T12:16:54.878Z,9.0
2022-09-09T12:21:55.449Z,5.8
2022-09-09T12:26:56.288Z,6.2
2022-09-09T12:31:57.273Z,7.8
2022-09-09T12:36:58.202Z,5.3
2022-09-09T12:41:58.864Z,5.0
2022-09-09T12:47:00.133Z,3.2
2022-09-09T12:52:00.496Z,4.9
2022-09-09T12:57:01.456Z,5.4
2022-09-09T13:02:02.238Z,5.9
2022-09-09T13:07:03.092Z,5.0
2022-09-09T13:12:04.012Z,6.5
2022-09-09T13:17:05.160Z,5.4
2022-09-09T13:22:05.925Z,4.8
2022-09-09T13:27:06.737Z,5.4
2022-09-09T13:32:07.484Z,6.2
2022-09-09T13:37:08.382Z,4.5
2022-09-09T13:42:09.203Z,5.9
2022-09-09T13:47:10.938Z,5.6
2022-09-09T13:52:10.964Z,6.4
2022-09-09T13:57:12.030Z,4.8
2022-09-09T14:02:13.063Z,5.1
2022-09-09T14:07:14.319Z,4.9
2022-09-09T14:12:14.425Z,7.1
2022-09-09T14:17:15.465Z,3.8
2022-09-09T14:22:16.140Z,5.3
2022-09-09T14:27:17.115Z,4.5
2022-09-09T14:32:18.185Z,2.7
2022-09-09T14:37:18.948Z,5.5
2022-09-09T14:42:19.760Z,5.3
2022-09-09T14:47:21.682Z,5.6
2022-09-09T14:52:22.524Z,4.1
2022-09-09T14:57:22.587Z,3.9
2022-09-09T15:02:23.418Z,3.4
2022-09-09T15:07:24.146Z,3.9
2022-09-09T15:12:25.244Z,3.2
2022-09-09T15:17:26.130Z,5.6
2022-09-09T15:22:26.752Z,3.4
2022-09-09T15:27:27.849Z,2.9
2022-09-09T15:32:28.583Z,4.8
2022-09-09T15:37:29.493Z,5.0
2022-09-09T15:42:30.097Z,4.1
2022-09-09T15:47:31.752Z,5.8
2022-09-09T15:52:31.848Z,4.8
2022-09-09T15:57:32.918Z,3.2
2022-09-09T16:02:33.929Z,6.7
2022-09-09T16:07:34.613Z,3.8
2022-09-09T16:12:35.698Z,4.8
2022-09-09T16:17:36.712Z,3.7
2022-09-09T16:22:37.178Z,5.5
2022-09-09T16:27:38.090Z,4.2
2022-09-09T16:32:39.338Z,2.7
2022-09-09T16:37:40.180Z,1.9
2022-09-09T16:42:41.316Z,3.6
2022-09-09T16:47:42.704Z,3.1
2022-09-09T16:52:42.498Z,1.8
2022-09-09T16:57:43.470Z,4.1
2022-09-09T17:02:44.565Z,3.2
2022-09-09T17:07:45.183Z,3.2
2022-09-09T17:12:46.160Z,2.3
2022-09-09T17:17:47.055Z,1.5
2022-09-09T17:22:47.906Z,3.9
2022-09-09T17:27:48.920Z,2.1
2022-09-09T17:32:49.733Z,2.2
2022-09-09T17:37:50.209Z,3.4
2022-09-09T17:42:51.018Z,3.0
2022-09-09T17:47:53.309Z,4.2
2022-09-09T17:52:52.730Z,4.7
2022-09-09T17:57:53.561Z,1.6
2022-09-09T18:02:54.511Z,3.7
2022-09-09T18:07:55.254Z,4.7
2022-09-09T18:12:56.108Z,1.8
2022-09-09T18:17:57.274Z,2.5
2022-09-09T18:22:58.078Z,2.4
2022-09-09T18:27:58.882Z,2.7
2022-09-09T18:32:59.600Z,2.8
2022-09-09T18:38:00.526Z,2.8
2022-09-09T18:43:01.269Z,2.0
2022-09-09T18:48:03.632Z,2.6
2022-09-09T18:53:02.834Z,3.5
2022-09-09T18:58:03.804Z,3.3
2022-09-09T19:03:05.196Z,2.5
2022-09-09T19:08:05.450Z,2.1
2022-09-09T19:13:06.044Z,2.2
2022-09-09T19:18:07.424Z,2.2
2022-09-09T19:23:07.799Z,2.0
2022-09-09T19:28:08.530Z,4.0
2022-09-09T19:33:09.804Z,5.4
2022-09-09T19:38:10.174Z,3.2
2022-09-09T19:43:11.055Z,2.5
2022-09-09T19:48:17.887Z,2.3
2022-09-09T19:53:12.554Z,2.0
2022-09-09T19:58:13.795Z,2.6
2022-09-09T20:03:18.612Z,2.6
2022-09-09T20:08:14.946Z,1.7
2022-09-09T20:13:15.914Z,2.1
2022-09-09T20:18:16.395Z,2.0
2022-09-09T20:23:16.984Z,2.6
2022-09-09T20:28:17.818Z,3.0
2022-09-09T20:33:18.860Z,2.1
2022-09-09T20:38:19.159Z,1.7
2022-09-09T20:43:19.911Z,1.5
2022-09-09T20:48:21.269Z,2.7
2022-09-09T20:53:21.693Z,3.5
2022-09-09T20:58:22.214Z,2.0
2022-09-09T21:03:22.917Z,3.5
2022-09-09T21:08:23.761Z,2.3
2022-09-09T21:13:24.600Z,3.5
2022-09-09T21:18:25.224Z,2.3
2022-09-09T21:23:25.952Z,2.7
2022-09-09T21:28:26.691Z,4.0
2022-09-09T21:33:27.652Z,3.1
2022-09-09T21:38:28.000Z,1.8
2022-09-09T21:43:28.760Z,3.4
2022-09-09T21:48:30.124Z,2.9
2022-09-09T21:53:30.144Z,1.9
2022-09-09T21:58:31.042Z,4.8
2022-09-09T22:03:31.813Z,1.5
2022-09-09T22:08:32.579Z,2.9
2022-09-09T22:13:32.898Z,1.5
2022-09-09T22:18:33.858Z,3.4
2022-09-09T22:23:34.572Z,1.7
2022-09-09T22:28:35.168Z,4.1
2022-09-09T22:33:35.926Z,2.4
2022-09-09T22:38:36.648Z,2.5
2022-09-09T22:43:37.181Z,2.9
2022-09-09T22:48:38.802Z,1.7
2022-09-09T22:53:38.505Z,2.8
2022-09-09T22:58:39.304Z,1.9
2022-09-09T23:03:40.127Z,3.0
2022-09-09T23:08:40.550Z,4.5
2022-09-09T23:13:41.521Z,1.4
2022-09-09T23:18:42.193Z,1.7
2022-09-09T23:23:42.714Z,2.8
2022-09-09T23:28:43.292Z,1.5
2022-09-09T23:33:43.942Z,2.7
2022-09-09T23:38:44.642Z,3.7
2022-09-09T23:43:45.347Z,2.4
2022-09-09T23:48:47.028Z,2.4
2022-09-09T23:53:46.600Z,3.1
2022-09-09T23:58:47.570Z,1.7
